| time (UTC) | temp C | wind direction | speed KPH | gust KPH | rain 1hr cm | rain 24hr cm | rain mn cm | humidity % | barometer mb |
| 20260504185548 | 27 | 113 | 8.0 | 20.9 | 0.00 | 0.00 | 0.00 | 54 | 1012.6 |
| 20260504185025 | 27 | 119 | 9.7 | 20.9 | 0.00 | 0.00 | 0.00 | 54 | 1012.7 |
| 20260504184525 | 27 | 103 | 12.9 | 17.7 | 0.00 | 0.00 | 0.00 | 56 | 1012.8 |
| 20260504184042 | 26 | 126 | 6.4 | 17.7 | 0.00 | 0.00 | 0.00 | 58 | 1012.9 |
| 20260504183543 | 26 | 98 | 9.7 | 20.9 | 0.00 | 0.00 | 0.00 | 54 | 1013.0 |
| 20260504183042 | 26 | 81 | 12.9 | 20.9 | 0.00 | 0.00 | 0.00 | 55 | 1013.1 |
| 20260504182543 | 26 | 112 | 14.5 | 19.3 | 0.00 | 0.00 | 0.00 | 55 | 1013.2 |
| 20260504182041 | 26 | 123 | 8.0 | 19.3 | 0.00 | 0.00 | 0.00 | 56 | 1013.2 |
| 20260504181541 | 26 | 104 | 14.5 | 19.3 | 0.00 | 0.00 | 0.00 | 56 | 1013.4 |
| 20260504181055 | 26 | 94 | 3.2 | 14.5 | 0.00 | 0.00 | 0.00 | 57 | 1013.4 |
| 20260504180553 | 26 | 102 | 8.0 | 16.1 | 0.00 | 0.00 | 0.00 | 58 | 1013.6 |
| 20260504180031 | 26 | 73 | 9.7 | 16.1 | 0.00 | 0.00 | 0.00 | 57 | 1013.7 |
| 20260504175529 | 26 | 40 | 11.3 | 16.1 | 0.00 | 0.00 | 0.00 | 57 | 1013.8 |
| 20260504175027 | 26 | 194 | 6.4 | 22.5 | 0.00 | 0.00 | 0.00 | 55 | 1013.7 |
| 20260504174527 | 26 | 184 | 6.4 | 22.5 | 0.00 | 0.00 | 0.00 | 56 | 1013.6 |
| 20260504174043 | 26 | 142 | 8.0 | 20.9 | 0.00 | 0.00 | 0.00 | 58 | 1013.7 |
| 20260504173541 | 26 | 103 | 12.9 | 20.9 | 0.00 | 0.00 | 0.00 | 57 | 1013.8 |
| 20260504173041 | 26 | 61 | 8.0 | 16.1 | 0.00 | 0.00 | 0.00 | 58 | 1013.7 |
| 20260504172540 | 26 | 121 | 8.0 | 17.7 | 0.00 | 0.00 | 0.00 | 58 | 1013.8 |
| 20260504172039 | 26 | 76 | 6.4 | 24.1 | 0.00 | 0.00 | 0.00 | 57 | 1013.9 |
| 20260504171540 | 26 | 134 | 6.4 | 16.1 | 0.00 | 0.00 | 0.00 | 58 | 1013.9 |
| 20260504171038 | 26 | 360 | 9.7 | 22.5 | 0.00 | 0.00 | 0.00 | 59 | 1014.0 |
| 20260504170537 | 25 | 105 | 12.9 | 22.5 | 0.00 | 0.00 | 0.00 | 58 | 1014.0 |
| 20260504151029 | 24 | 55 | 12.9 | 20.9 | 0.00 | 0.00 | 0.00 | 63 | 1015.2 |
| 20260504150528 | 24 | 18 | 14.5 | 29.0 | 0.00 | 0.00 | 0.00 | 64 | 1015.1 |
| 20260504141038 | 23 | 101 | 12.9 | 24.1 | 0.00 | 0.00 | 0.00 | 68 | 1014.9 |
| 20260504140536 | 23 | 82 | 12.9 | 22.5 | 0.00 | 0.00 | 0.00 | 68 | 1014.8 |
| 20260504130540 | 21 | 85 | 16.1 | 24.1 | 0.00 | 0.00 | 0.00 | 72 | 1014.6 |
| 20260504110530 | 17 | 45 | 3.2 | 6.4 | 0.00 | 0.00 | 0.00 | 82 | 1013.9 |
| 20260504100532 | 18 | 23 | 3.2 | 8.0 | 0.00 | 0.00 | 0.00 | 81 | 1013.7 |
| 20260504081534 | 19 | 50 | 6.4 | 9.7 | 0.00 | 0.00 | 0.00 | 79 | 1013.5 |
| 20260504081049 | 19 | 34 | 4.8 | 9.7 | 0.00 | 0.00 | 0.00 | 79 | 1013.5 |
| 20260504080528 | 19 | 68 | 4.8 | 9.7 | 0.00 | 0.00 | 0.00 | 78 | 1013.7 |
| 20260504050532 | 21 | 72 | 3.2 | 9.7 | 0.00 | 0.00 | 0.00 | 75 | 1014.5 |
| 20260504045527 | 21 | 98 | 8.0 | 12.9 | 0.00 | 0.00 | 0.00 | 75 | 1014.5 |
| 20260504045025 | 21 | 86 | 4.8 | 11.3 | 0.00 | 0.00 | 0.00 | 75 | 1014.4 |
| 20260504044525 | 21 | 63 | 6.4 | 11.3 | 0.00 | 0.00 | 0.00 | 75 | 1014.3 |
| 20260504044043 | 21 | 88 | 4.8 | 14.5 | 0.00 | 0.00 | 0.00 | 75 | 1014.5 |
| 20260504043557 | 21 | 88 | 4.8 | 12.9 | 0.00 | 0.00 | 0.00 | 75 | 1014.7 |
| 20260504043052 | 21 | 90 | 6.4 | 12.9 | 0.00 | 0.00 | 0.00 | 74 | 1014.9 |
| 20260504042528 | 22 | 78 | 3.2 | 6.4 | 0.00 | 0.00 | 0.00 | 74 | 1015.0 |
| 20260504042027 | 22 | 87 | 3.2 | 9.7 | 0.00 | 0.00 | 0.00 | 74 | 1015.1 |
| 20260504041528 | 22 | 89 | 4.8 | 9.7 | 0.00 | 0.00 | 0.00 | 74 | 1015.1 |
| 20260504041025 | 22 | 77 | 4.8 | 6.4 | 0.00 | 0.00 | 0.00 | 74 | 1015.2 |
| 20260504040543 | 22 | 97 | 3.2 | 9.7 | 0.00 | 0.00 | 0.00 | 74 | 1015.3 |
| 20260504040039 | 22 | 96 | 6.4 | 9.7 | 0.00 | 0.00 | 0.00 | 73 | 1015.3 |
| 20260504035539 | 22 | 58 | 4.8 | 9.7 | 0.00 | 0.00 | 0.00 | 74 | 1015.3 |
| 20260504035037 | 22 | 102 | 4.8 | 12.9 | 0.00 | 0.00 | 0.00 | 73 | 1015.3 |
| 20260504034537 | 22 | 112 | 8.0 | 14.5 | 0.00 | 0.00 | 0.00 | 73 | 1015.2 |
| 20260504034100 | 22 | 105 | 8.0 | 14.5 | 0.00 | 0.00 | 0.00 | 73 | 1015.2 |
| 20260504033540 | 22 | 71 | 8.0 | 14.5 | 0.00 | 0.00 | 0.00 | 73 | 1015.2 |
| 20260504033040 | 22 | 97 | 6.4 | 12.9 | 0.00 | 0.00 | 0.00 | 73 | 1015.2 |
| 20260504032536 | 22 | 101 | 8.0 | 12.9 | 0.00 | 0.00 | 0.00 | 73 | 1015.3 |
| 20260504032059 | 22 | 93 | 4.8 | 9.7 | 0.00 | 0.00 | 0.00 | 73 | 1015.1 |
| 20260504031534 | 22 | 103 | 4.8 | 8.0 | 0.00 | 0.00 | 0.00 | 73 | 1015.1 |
| 20260504031046 | 22 | 71 | 3.2 | 6.4 | 0.00 | 0.00 | 0.00 | 72 | 1015.1 |
| 20260504030526 | 22 | 61 | 3.2 | 6.4 | 0.00 | 0.00 | 0.00 | 72 | 1015.0 |
| 20260504030045 | 22 | 60 | 1.6 | 4.8 | 0.00 | 0.00 | 0.00 | 72 | 1014.9 |
| 20260504025541 | 22 | 60 | 3.2 | 4.8 | 0.00 | 0.00 | 0.00 | 71 | 1015.0 |
| 20260504025039 | 22 | 59 | 3.2 | 4.8 | 0.00 | 0.00 | 0.00 | 71 | 1014.9 |
| 20260504024539 | 22 | 59 | 3.2 | 8.0 | 0.00 | 0.00 | 0.00 | 71 | 1014.8 |
| 20260504024035 | 22 | 81 | 3.2 | 8.0 | 0.00 | 0.00 | 0.00 | 71 | 1014.8 |
| 20260504023536 | 22 | 76 | 3.2 | 6.4 | 0.00 | 0.00 | 0.00 | 71 | 1014.7 |
| 20260504023100 | 22 | 65 | 4.8 | 8.0 | 0.00 | 0.00 | 0.00 | 71 | 1014.8 |
| 20260504022537 | 22 | 63 | 3.2 | 8.0 | 0.00 | 0.00 | 0.00 | 70 | 1014.9 |
| 20260504022036 | 22 | 46 | 3.2 | 4.8 | 0.00 | 0.00 | 0.00 | 70 | 1014.8 |
| 20260504021555 | 22 | 32 | 1.6 | 8.0 | 0.00 | 0.00 | 0.00 | 70 | 1014.7 |
| 20260504021027 | 22 | 34 | 4.8 | 8.0 | 0.00 | 0.00 | 0.00 | 69 | 1014.5 |
| 20260504020525 | 22 | 41 | 4.8 | 8.0 | 0.00 | 0.00 | 0.00 | 69 | 1014.5 |
| 20260504020024 | 22 | 32 | 4.8 | 9.7 | 0.00 | 0.00 | 0.00 | 69 | 1014.6 |
| 20260504015543 | 22 | 75 | 4.8 | 12.9 | 0.00 | 0.00 | 0.00 | 69 | 1014.6 |
| 20260504015041 | 22 | 85 | 8.0 | 12.9 | 0.00 | 0.00 | 0.00 | 70 | 1014.4 |
| 20260504014539 | 22 | 13 | 4.8 | 9.7 | 0.00 | 0.00 | 0.00 | 70 | 1014.4 |
| 20260504014035 | 22 | 47 | 3.2 | 6.4 | 0.00 | 0.00 | 0.00 | 70 | 1014.2 |
| 20260504013534 | 22 | 59 | 3.2 | 6.4 | 0.00 | 0.00 | 0.00 | 70 | 1014.3 |
| 20260504013100 | 22 | 5 | 0.0 | 4.8 | 0.00 | 0.00 | 0.00 | 70 | 1014.1 |
| 20260504012602 | 22 | 5 | 1.6 | 4.8 | 0.00 | 0.00 | 0.00 | 70 | 1014.0 |
| 20260504012102 | 22 | 5 | 1.6 | 4.8 | 0.00 | 0.00 | 0.00 | 69 | 1013.9 |
| 20260504011540 | 22 | 10 | 3.2 | 4.8 | 0.00 | 0.00 | 0.00 | 69 | 1013.7 |
| 20260504011058 | 22 | 10 | 3.2 | 9.7 | 0.00 | 0.00 | 0.00 | 69 | 1013.6 |
| 20260504010536 | 22 | 332 | 4.8 | 9.7 | 0.00 | 0.00 | 0.00 | 69 | 1013.7 |
| 20260504005558 | 22 | 19 | 3.2 | 8.0 | 0.00 | 0.00 | 0.00 | 69 | 1013.5 |
| 20260504005029 | 23 | 345 | 3.2 | 8.0 | 0.00 | 0.00 | 0.00 | 69 | 1013.4 |
| 20260504004530 | 23 | 330 | 4.8 | 8.0 | 0.00 | 0.00 | 0.00 | 69 | 1013.4 |
| 20260504004028 | 23 | 346 | 3.2 | 6.4 | 0.00 | 0.00 | 0.00 | 69 | 1013.4 |
| 20260504003528 | 23 | 30 | 1.6 | 8.0 | 0.00 | 0.00 | 0.00 | 69 | 1013.3 |
| 20260504003028 | 23 | 355 | 4.8 | 8.0 | 0.00 | 0.00 | 0.00 | 68 | 1013.3 |
| 20260504002526 | 23 | 5 | 3.2 | 8.0 | 0.00 | 0.00 | 0.00 | 68 | 1013.1 |
| 20260504002044 | 23 | 26 | 3.2 | 11.3 | 0.00 | 0.00 | 0.00 | 68 | 1013.0 |
| 20260504001541 | 23 | 331 | 4.8 | 11.3 | 0.00 | 0.00 | 0.00 | 68 | 1013.1 |
| 20260504001039 | 23 | 336 | 4.8 | 8.0 | 0.00 | 0.00 | 0.00 | 67 | 1013.0 |
| 20260504000540 | 23 | 5 | 4.8 | 12.9 | 0.00 | 0.00 | 0.00 | 68 | 1012.9 |
| 20260504000035 | 23 | 336 | 3.2 | 12.9 | 0.00 | 0.00 | 0.00 | 68 | 1012.8 |
| 20260503235532 | 23 | 334 | 4.8 | 9.7 | 0.00 | 0.00 | 0.00 | 67 | 1012.9 |
| 20260503235028 | 24 | 339 | 6.4 | 9.7 | 0.00 | 0.00 | 0.00 | 67 | 1012.8 |
| 20260503234527 | 24 | 355 | 1.6 | 9.7 | 0.00 | 0.00 | 0.00 | 67 | 1012.9 |
| 20260503234024 | 24 | 319 | 4.8 | 9.7 | 0.00 | 0.00 | 0.00 | 67 | 1012.8 |
| 20260503233542 | 25 | 330 | 6.4 | 16.1 | 0.00 | 0.00 | 0.00 | 66 | 1012.8 |
| 20260503233041 | 25 | 319 | 9.7 | 16.1 | 0.00 | 0.00 | 0.00 | 65 | 1012.8 |
| 20260503232541 | 25 | 332 | 8.0 | 16.1 | 0.00 | 0.00 | 0.00 | 65 | 1012.8 |
| 20260503232038 | 25 | 22 | 8.0 | 16.1 | 0.00 | 0.00 | 0.00 | 64 | 1012.8 |
| 20260503231538 | 26 | 336 | 4.8 | 8.0 | 0.00 | 0.00 | 0.00 | 61 | 1012.8 |
| 20260503231053 | 26 | 341 | 4.8 | 9.7 | 0.00 | 0.00 | 0.00 | 58 | 1012.7 |
| 20260503230532 | 26 | 63 | 4.8 | 12.9 | 0.00 | 0.00 | 0.00 | 57 | 1012.6 |
| 20260503230028 | 26 | 33 | 8.0 | 14.5 | 0.00 | 0.00 | 0.00 | 57 | 1012.6 |
| 20260503225525 | 26 | 102 | 4.8 | 14.5 | 0.00 | 0.00 | 0.00 | 62 | 1012.5 |
| 20260503225043 | 26 | 79 | 6.4 | 8.0 | 0.00 | 0.00 | 0.00 | 58 | 1012.5 |
| 20260503224543 | 26 | 60 | 3.2 | 12.9 | 0.00 | 0.00 | 0.00 | 59 | 1012.6 |
| 20260503224040 | 26 | 70 | 6.4 | 12.9 | 0.00 | 0.00 | 0.00 | 58 | 1012.5 |
| 20260503223535 | 26 | 67 | 1.6 | 12.9 | 0.00 | 0.00 | 0.00 | 58 | 1012.6 |
| 20260503223030 | 26 | 360 | 3.2 | 12.9 | 0.00 | 0.05 | 0.00 | 58 | 1012.6 |
| 20260503222529 | 26 | 12 | 4.8 | 12.9 | 0.00 | 0.05 | 0.00 | 58 | 1012.6 |
| 20260503222026 | 27 | 28 | 6.4 | 16.1 | 0.00 | 0.05 | 0.00 | 56 | 1012.6 |
| 20260503221548 | 26 | 344 | 4.8 | 8.0 | 0.00 | 0.05 | 0.00 | 57 | 1012.6 |
| 20260503221024 | 26 | 15 | 4.8 | 9.7 | 0.00 | 0.05 | 0.00 | 58 | 1012.7 |
| 20260503220543 | 26 | 5 | 4.8 | 14.5 | 0.00 | 0.05 | 0.00 | 58 | 1012.6 |
| 20260503220042 | 26 | 360 | 6.4 | 12.9 | 0.00 | 0.05 | 0.00 | 57 | 1012.7 |
| 20260503215540 | 26 | 55 | 4.8 | 17.7 | 0.00 | 0.05 | 0.00 | 57 | 1012.8 |
| 20260503215100 | 26 | 63 | 9.7 | 17.7 | 0.00 | 0.05 | 0.00 | 57 | 1012.7 |
| 20260503214604 | 26 | 69 | 8.0 | 12.9 | 0.00 | 0.05 | 0.00 | 57 | 1012.6 |
| 20260503214038 | 26 | 5 | 3.2 | 14.5 | 0.00 | 0.05 | 0.00 | 58 | 1012.6 |
| 20260503213536 | 26 | 64 | 8.0 | 14.5 | 0.00 | 0.05 | 0.00 | 57 | 1012.6 |
| 20260503213058 | 26 | 340 | 4.8 | 14.5 | 0.00 | 0.08 | 0.00 | 58 | 1012.7 |
| 20260503212601 | 26 | 13 | 6.4 | 14.5 | 0.00 | 0.08 | 0.00 | 59 | 1012.7 |
| 20260503212059 | 26 | 29 | 6.4 | 14.5 | 0.00 | 0.08 | 0.00 | 58 | 1012.7 |
| 20260503211557 | 26 | 88 | 4.8 | 8.0 | 0.00 | 0.08 | 0.00 | 57 | 1012.7 |
| 20260503211036 | 26 | 33 | 1.6 | 12.9 | 0.00 | 0.08 | 0.00 | 57 | 1012.8 |
| 20260503210539 | 26 | 58 | 4.8 | 17.7 | 0.00 | 0.08 | 0.00 | 57 | 1012.8 |
| 20260503210039 | 26 | 17 | 6.4 | 17.7 | 0.00 | 0.08 | 0.00 | 58 | 1012.8 |
| 20260503205536 | 26 | 75 | 6.4 | 14.5 | 0.00 | 0.08 | 0.00 | 58 | 1012.9 |
| 20260503205034 | 26 | 15 | 4.8 | 14.5 | 0.00 | 0.08 | 0.00 | 60 | 1012.8 |
| 20260503204554 | 26 | 339 | 3.2 | 16.1 | 0.00 | 0.08 | 0.00 | 60 | 1012.8 |
| 20260503204050 | 26 | 41 | 9.7 | 19.3 | 0.00 | 0.08 | 0.00 | 59 | 1012.8 |
| 20260503203529 | 26 | 50 | 12.9 | 19.3 | 0.00 | 0.08 | 0.00 | 59 | 1013.0 |
| 20260503203047 | 26 | 344 | 4.8 | 12.9 | 0.00 | 0.13 | 0.00 | 61 | 1013.0 |
| 20260503202544 | 26 | 53 | 4.8 | 14.5 | 0.00 | 0.13 | 0.00 | 61 | 1013.1 |
| 20260503202041 | 25 | 76 | 6.4 | 14.5 | 0.00 | 0.13 | 0.00 | 63 | 1013.1 |
| 20260503201541 | 25 | 110 | 4.8 | 14.5 | 0.00 | 0.13 | 0.00 | 62 | 1013.1 |
| 20260503201038 | 25 | 79 | 6.4 | 11.3 | 0.00 | 0.13 | 0.00 | 63 | 1013.2 |
| 20260503200557 | 25 | 61 | 6.4 | 16.1 | 0.00 | 0.13 | 0.00 | 62 | 1013.4 |
| 20260503200056 | 25 | 82 | 11.3 | 17.7 | 0.00 | 0.13 | 0.00 | 63 | 1013.5 |
| 20260503195531 | 25 | 121 | 11.3 | 17.7 | 0.00 | 0.13 | 0.00 | 63 | 1013.6 |
| 20260503195030 | 25 | 134 | 6.4 | 14.5 | 0.00 | 0.13 | 0.00 | 64 | 1013.6 |
| 20260503194529 | 25 | 360 | 9.7 | 14.5 | 0.00 | 0.13 | 0.00 | 62 | 1013.7 |
| 20260503194024 | 25 | 40 | 8.0 | 17.7 | 0.00 | 0.13 | 0.00 | 63 | 1013.8 |
| 20260503193525 | 25 | 67 | 9.7 | 17.7 | 0.00 | 0.13 | 0.00 | 63 | 1013.9 |
| 20260503193024 | 25 | 27 | 6.4 | 17.7 | 0.00 | 1.19 | 0.00 | 64 | 1013.9 |
| 20260503192604 | 25 | 98 | 11.3 | 16.1 | 0.00 | 1.19 | 0.00 | 63 | 1014.0 |
| 20260503192039 | 25 | 99 | 11.3 | 16.1 | 0.00 | 1.19 | 0.00 | 64 | 1014.0 |
| 20260503191538 | 25 | 15 | 6.4 | 14.5 | 0.00 | 1.19 | 0.00 | 65 | 1014.2 |
| 20260503191033 | 25 | 44 | 9.7 | 14.5 | 0.00 | 1.19 | 0.00 | 63 | 1014.4 |
| 20260503190530 | 25 | 24 | 6.4 | 17.7 | 0.00 | 1.19 | 0.00 | 65 | 1014.5 |
| 20260503190029 | 25 | 96 | 6.4 | 12.9 | 0.00 | 1.19 | 0.00 | 67 | 1014.6 |